createdAt,value
2022-08-10T00:05:03.945Z,85.32
2022-08-10T00:10:26.246Z,85.69
2022-08-10T00:15:53.767Z,87.14
2022-08-10T00:21:16.655Z,89.33
2022-08-10T00:27:52.966Z,89.80
2022-08-10T00:32:21.169Z,88.17
2022-08-10T00:37:43.088Z,88.46
2022-08-10T00:43:23.280Z,88.27
2022-08-10T00:48:45.909Z,89.24
2022-08-10T00:54:23.883Z,89.16
2022-08-10T00:59:59.059Z,89.81
2022-08-10T01:05:22.072Z,89.79
2022-08-10T01:12:38.864Z,90.66
2022-08-10T01:17:00.510Z,94.02
2022-08-10T01:22:52.610Z,96.01
2022-08-10T01:28:30.769Z,96.61
2022-08-10T01:34:02.563Z,95.07
2022-08-10T01:39:33.155Z,97.33
2022-08-10T01:45:00.243Z,96.67
2022-08-10T01:51:04.735Z,98.00
2022-08-10T01:56:30.512Z,96.80
2022-08-10T02:01:59.005Z,98.00
2022-08-10T02:07:27.246Z,99.16
2022-08-10T02:12:50.347Z,98.90
2022-08-10T02:18:13.541Z,98.60
2022-08-10T02:23:39.444Z,100.00
2022-08-10T02:29:02.332Z,100.00
2022-08-10T02:34:26.095Z,100.00
2022-08-10T02:39:48.081Z,100.00
2022-08-10T02:45:31.155Z,100.00
2022-08-10T02:51:05.413Z,100.00
2022-08-10T02:56:43.423Z,100.00
2022-08-10T03:02:08.340Z,100.00
2022-08-10T03:07:43.930Z,100.00
2022-08-10T03:13:09.384Z,100.00
2022-08-10T03:18:33.401Z,100.00
2022-08-10T03:23:57.245Z,100.00
2022-08-10T03:29:21.417Z,100.00
2022-08-10T03:34:43.680Z,100.00
2022-08-10T03:40:07.282Z,100.00
2022-08-10T03:45:54.269Z,99.92
2022-08-10T03:51:15.759Z,98.73
2022-08-10T03:56:39.875Z,91.64
2022-08-10T04:02:42.255Z,82.17
2022-08-10T04:07:45.149Z,68.18
2022-08-10T04:13:06.973Z,59.94
2022-08-10T04:18:28.834Z,57.79
2022-08-10T04:23:53.337Z,63.64
2022-08-10T04:29:15.356Z,66.52
2022-08-10T04:34:44.060Z,63.26
2022-08-10T04:40:06.318Z,61.18
2022-08-10T04:45:51.668Z,59.12
2022-08-10T04:51:18.415Z,59.43
2022-08-10T04:56:40.562Z,56.47
2022-08-10T05:02:27.981Z,52.95
2022-08-10T05:07:56.774Z,44.79
2022-08-10T05:13:18.851Z,34.34
2022-08-10T05:18:40.690Z,33.26
2022-08-10T05:24:02.548Z,30.93
2022-08-10T05:29:24.389Z,28.74
2022-08-10T05:34:46.243Z,28.05
2022-08-10T05:40:08.786Z,26.88
2022-08-10T05:45:30.727Z,25.64
2022-08-10T05:50:52.621Z,25.59
2022-08-10T05:56:14.620Z,22.59
2022-08-10T06:01:41.315Z,25.04
2022-08-10T06:07:06.379Z,25.50
2022-08-10T06:12:30.644Z,31.62
2022-08-10T06:18:13.639Z,31.10
2022-08-10T06:23:37.400Z,26.61
2022-08-10T06:29:07.737Z,26.46
2022-08-10T06:34:33.325Z,25.90
2022-08-10T06:39:56.969Z,24.13
2022-08-10T06:45:22.918Z,23.21
2022-08-10T06:50:57.995Z,24.27
2022-08-10T06:56:38.158Z,24.98
2022-08-10T07:02:14.695Z,20.36
2022-08-10T07:07:40.008Z,24.34
2022-08-10T07:13:02.801Z,25.04
2022-08-10T07:18:26.772Z,26.37
2022-08-10T07:23:58.059Z,26.70
2022-08-10T07:29:26.257Z,27.04
2022-08-10T07:35:06.309Z,30.19
2022-08-10T07:40:29.351Z,29.26
2022-08-10T07:45:51.540Z,25.03
2022-08-10T07:51:16.338Z,25.22
2022-08-10T07:56:49.071Z,27.36
2022-08-10T08:02:34.481Z,23.59
2022-08-10T08:07:58.338Z,22.76
2022-08-10T08:13:22.236Z,24.81
2022-08-10T08:19:03.739Z,26.22
2022-08-10T08:24:33.054Z,26.26
2022-08-10T08:29:56.162Z,27.44
2022-08-10T08:35:19.988Z,26.31
2022-08-10T08:40:48.057Z,27.82
2022-08-10T08:46:22.064Z,26.07
2022-08-10T08:52:18.084Z,27.25
2022-08-10T08:57:55.429Z,34.64
2022-08-10T09:03:33.896Z,27.39
2022-08-10T09:09:33.199Z,29.41
2022-08-10T09:15:39.649Z,26.95
2022-08-10T09:21:24.855Z,32.62
2022-08-10T09:26:50.154Z,34.50
2022-08-10T09:36:13.779Z,35.51
2022-08-10T09:38:24.192Z,37.15
2022-08-10T09:44:06.068Z,38.77
2022-08-10T09:50:03.696Z,39.84
2022-08-10T09:56:18.248Z,39.94
2022-08-10T10:01:58.166Z,37.01
2022-08-10T10:07:13.898Z,38.67
2022-08-10T10:13:06.906Z,41.71
2022-08-10T10:19:21.177Z,36.82
2022-08-10T10:24:50.890Z,34.77
2022-08-10T10:30:14.968Z,38.68
2022-08-10T10:35:41.227Z,40.29
2022-08-10T10:41:19.519Z,39.60
2022-08-10T10:47:15.552Z,38.30
2022-08-10T10:52:49.749Z,39.04
2022-08-10T10:58:27.873Z,37.03
2022-08-10T11:04:02.041Z,37.27
2022-08-10T11:10:03.482Z,37.93
2022-08-10T11:15:47.629Z,38.01
2022-08-10T11:21:36.593Z,39.01
2022-08-10T11:27:08.833Z,36.40
2022-08-10T11:33:03.691Z,37.00
2022-08-10T11:39:12.589Z,39.56
2022-08-10T11:44:46.204Z,42.12
2022-08-10T11:50:20.049Z,40.48
2022-08-10T11:55:46.728Z,38.59
2022-08-10T12:01:11.052Z,36.87
2022-08-10T12:06:54.731Z,35.30
2022-08-10T12:12:18.130Z,36.36
2022-08-10T12:17:49.603Z,36.51
2022-08-10T12:23:19.929Z,37.14
2022-08-10T12:29:05.905Z,38.42
2022-08-10T12:34:38.156Z,40.60
2022-08-10T12:40:36.531Z,41.19
2022-08-10T12:46:07.237Z,41.10
2022-08-10T12:51:31.140Z,41.27
2022-08-10T12:57:00.558Z,40.24
2022-08-10T13:02:32.496Z,39.82
2022-08-10T13:08:03.810Z,37.61
2022-08-10T13:13:43.603Z,36.54
2022-08-10T13:19:16.230Z,38.08
2022-08-10T13:24:41.666Z,41.00
2022-08-10T13:30:06.806Z,42.32
2022-08-10T13:35:33.873Z,42.01
2022-08-10T13:40:57.484Z,41.23
2022-08-10T13:46:22.506Z,41.92
2022-08-10T13:51:57.319Z,39.75
2022-08-10T13:57:33.558Z,37.24
2022-08-10T14:02:58.209Z,36.27
2022-08-10T14:08:25.003Z,38.38
2022-08-10T14:13:56.551Z,41.32
2022-08-10T14:19:27.923Z,41.65
2022-08-10T14:24:51.057Z,42.10
2022-08-10T14:30:16.773Z,42.90
2022-08-10T14:36:22.584Z,42.75
2022-08-10T14:42:03.104Z,42.06
2022-08-10T14:47:53.718Z,44.07
2022-08-10T14:52:56.041Z,42.66
2022-08-10T14:58:21.656Z,42.86
2022-08-10T15:04:02.147Z,41.83
2022-08-10T15:09:28.403Z,42.81
2022-08-10T15:15:18.085Z,42.67
2022-08-10T15:20:58.827Z,42.44
2022-08-10T15:26:25.463Z,42.28
2022-08-10T15:31:49.893Z,42.83
2022-08-10T15:37:39.474Z,42.14
2022-08-10T15:43:01.764Z,43.13
2022-08-10T15:48:32.409Z,44.46
2022-08-10T15:54:02.124Z,43.83
2022-08-10T15:59:31.668Z,45.01
2022-08-10T16:05:02.750Z,44.28
2022-08-10T16:10:38.538Z,44.41
2022-08-10T16:16:01.827Z,47.42
2022-08-10T16:21:24.628Z,45.99
2022-08-10T16:26:51.048Z,45.75
2022-08-10T16:32:20.330Z,45.62
2022-08-10T16:37:57.234Z,45.27
2022-08-10T16:43:23.848Z,45.49
2022-08-10T16:48:51.021Z,45.46
2022-08-10T16:54:17.011Z,46.20
2022-08-10T16:59:40.583Z,45.82
2022-08-10T17:05:05.100Z,46.19
2022-08-10T17:10:30.008Z,45.53
2022-08-10T17:15:58.825Z,44.37
2022-08-10T17:21:22.805Z,44.14
2022-08-10T17:26:46.401Z,44.81
2022-08-10T17:32:44.605Z,44.95
2022-08-10T17:38:11.038Z,45.09
2022-08-10T17:44:00.731Z,45.79
2022-08-10T17:49:19.275Z,46.61
2022-08-10T17:54:43.956Z,46.94
2022-08-10T18:00:08.599Z,47.48
2022-08-10T18:05:32.602Z,48.65
2022-08-10T18:10:57.894Z,49.19
2022-08-10T18:16:28.794Z,50.42
2022-08-10T18:21:51.184Z,51.85
2022-08-10T18:32:39.569Z,52.15
2022-08-10T18:38:02.939Z,52.96
2022-08-10T18:44:06.754Z,53.63
2022-08-10T18:49:19.355Z,53.79
2022-08-10T18:54:48.420Z,54.65
2022-08-10T19:00:15.548Z,54.27
2022-08-10T19:05:48.445Z,55.13
2022-08-10T19:11:43.282Z,57.03
2022-08-10T19:17:27.208Z,57.23
2022-08-10T19:24:00.080Z,57.88
2022-08-10T19:30:11.683Z,58.80
2022-08-10T19:36:06.408Z,60.22
2022-08-10T19:41:44.577Z,59.79
2022-08-10T19:47:18.110Z,59.93
2022-08-10T19:52:58.743Z,61.40
2022-08-10T19:58:28.229Z,61.56
2022-08-10T20:03:59.329Z,62.24
2022-08-10T20:09:55.042Z,63.29
2022-08-10T20:15:42.256Z,63.53
2022-08-10T20:21:11.581Z,63.47
2022-08-10T20:26:39.030Z,63.62
2022-08-10T20:32:05.530Z,64.01
2022-08-10T20:37:45.182Z,64.32
2022-08-10T20:43:22.843Z,64.68
2022-08-10T20:48:55.171Z,64.59
2022-08-10T20:54:18.686Z,65.41
2022-08-10T21:00:11.927Z,66.14
2022-08-10T21:05:36.553Z,65.48
2022-08-10T21:11:21.730Z,66.81
2022-08-10T21:17:24.252Z,69.12
2022-08-10T21:22:49.109Z,68.68
2022-08-10T21:28:40.876Z,69.88
2022-08-10T21:34:31.690Z,70.60
2022-08-10T21:40:35.383Z,70.65
2022-08-10T21:46:24.874Z,71.31
2022-08-10T21:52:19.075Z,71.83
2022-08-10T21:58:27.423Z,73.49
2022-08-10T22:03:50.300Z,72.31
2022-08-10T22:09:21.094Z,72.39
2022-08-10T22:14:47.132Z,72.54
2022-08-10T22:20:27.055Z,72.76
2022-08-10T22:26:01.396Z,73.61
2022-08-10T22:31:50.644Z,73.41
2022-08-10T22:37:36.655Z,73.77
2022-08-10T22:43:10.784Z,73.87
2022-08-10T22:48:41.956Z,73.79
2022-08-10T22:54:10.089Z,74.62
2022-08-10T22:59:33.013Z,74.96
2022-08-10T23:05:05.675Z,75.42
2022-08-10T23:10:33.669Z,75.75
2022-08-10T23:16:02.521Z,76.07
2022-08-10T23:22:02.831Z,77.15
2022-08-10T23:27:38.556Z,77.01
2022-08-10T23:33:00.813Z,76.32
2022-08-10T23:38:29.139Z,76.40
2022-08-10T23:44:03.738Z,77.16
2022-08-10T23:49:34.145Z,77.11
2022-08-10T23:54:59.220Z,77.49
